createdAt,value
2023-01-13T00:01:11.974Z,83.20
2023-01-13T00:03:42.102Z,83.20
2023-01-13T00:06:10.450Z,83.20
2023-01-13T00:08:49.078Z,83.20
2023-01-13T00:11:34.986Z,83.20
2023-01-13T00:14:31.498Z,83.20
2023-01-13T00:17:06.219Z,83.20
2023-01-13T00:19:38.407Z,83.20
2023-01-13T00:22:54.903Z,83.20
2023-01-13T00:25:05.220Z,83.20
2023-01-13T00:27:42.856Z,83.20
2023-01-13T00:30:40.348Z,83.10
2023-01-13T00:33:12.458Z,83.00
2023-01-13T00:35:55.525Z,82.90
2023-01-13T00:38:45.021Z,82.90
2023-01-13T00:41:32.721Z,82.90
2023-01-13T00:44:02.336Z,82.90
2023-01-13T00:46:48.749Z,82.80
2023-01-13T00:49:57.572Z,82.80
2023-01-13T00:52:42.618Z,82.80
2023-01-13T00:55:22.498Z,82.70
2023-01-13T00:57:49.606Z,82.70
2023-01-13T01:00:31.427Z,82.70
2023-01-13T01:03:02.760Z,82.60
2023-01-13T01:05:40.073Z,82.70
2023-01-13T01:08:12.403Z,82.70
2023-01-13T01:10:45.496Z,82.60
2023-01-13T01:13:18.770Z,82.70
2023-01-13T01:15:52.108Z,82.60
2023-01-13T01:18:53.152Z,82.50
2023-01-13T01:21:20.452Z,82.50
2023-01-13T01:23:53.287Z,82.50
2023-01-13T01:26:29.923Z,82.60
2023-01-13T01:29:00.542Z,82.50
2023-01-13T01:31:42.963Z,82.40
2023-01-13T01:34:10.016Z,82.40
2023-01-13T01:36:42.938Z,82.40
2023-01-13T01:39:16.671Z,82.40
2023-01-13T01:42:22.042Z,82.30
2023-01-13T01:45:19.116Z,82.30
2023-01-13T01:47:53.830Z,82.20
2023-01-13T01:50:31.743Z,82.30
2023-01-13T01:53:10.823Z,82.20
2023-01-13T01:57:50.887Z,82.20
2023-01-13T01:59:14.293Z,82.30
2023-01-13T02:02:00.952Z,82.20
2023-01-13T02:05:05.556Z,82.20
2023-01-13T02:07:57.575Z,82.20
2023-01-13T02:10:34.435Z,82.20
2023-01-13T02:13:12.161Z,82.20
2023-01-13T02:16:17.645Z,82.20
2023-01-13T02:19:12.672Z,82.20
2023-01-13T02:22:25.889Z,82.20
2023-01-13T02:24:55.930Z,82.20
2023-01-13T02:28:27.151Z,82.20
2023-01-13T02:31:27.167Z,82.10
2023-01-13T02:34:13.428Z,82.10
2023-01-13T02:37:04.902Z,82.10
2023-01-13T02:40:10.174Z,82.10
2023-01-13T02:43:22.458Z,82.10
2023-01-13T02:45:55.159Z,82.00
2023-01-13T02:49:15.855Z,81.90
2023-01-13T02:51:23.916Z,81.90
2023-01-13T02:53:56.308Z,81.90
2023-01-13T02:56:28.373Z,81.90
2023-01-13T02:59:07.119Z,81.90
2023-01-13T03:02:02.279Z,81.80
2023-01-13T03:05:03.654Z,81.80
2023-01-13T03:07:34.167Z,81.80
2023-01-13T03:10:11.459Z,81.70
2023-01-13T03:13:00.824Z,81.70
2023-01-13T03:15:51.149Z,81.60
2023-01-13T03:18:45.347Z,81.50
2023-01-13T03:21:36.051Z,81.50
2023-01-13T03:24:25.968Z,81.50
2023-01-13T03:27:28.188Z,81.50
2023-01-13T03:30:16.229Z,81.50
2023-01-13T03:32:49.792Z,81.40
2023-01-13T03:35:35.324Z,81.40
2023-01-13T03:38:32.342Z,81.40
2023-01-13T03:41:29.026Z,81.40
2023-01-13T03:44:23.053Z,81.40
2023-01-13T03:47:08.317Z,81.40
2023-01-13T03:49:45.392Z,81.40
2023-01-13T03:52:17.114Z,81.40
2023-01-13T03:54:50.986Z,81.40
2023-01-13T03:57:26.495Z,81.40
2023-01-13T04:00:03.425Z,81.40
2023-01-13T04:05:30.925Z,81.90
2023-01-13T04:08:20.681Z,81.40
2023-01-13T04:11:04.531Z,81.40
2023-01-13T04:13:34.541Z,81.30
2023-01-13T04:16:09.196Z,81.40
2023-01-13T04:18:53.963Z,81.40
2023-01-13T04:21:21.186Z,81.30
2023-01-13T04:24:03.767Z,81.20
2023-01-13T04:26:31.999Z,81.20
2023-01-13T04:29:03.986Z,81.10
2023-01-13T04:31:30.973Z,81.00
2023-01-13T04:33:58.521Z,80.90
2023-01-13T04:36:28.038Z,80.90
2023-01-13T04:38:55.420Z,80.90
2023-01-13T04:41:57.012Z,80.90
2023-01-13T04:44:27.387Z,81.00
2023-01-13T04:47:02.197Z,81.20
2023-01-13T04:49:34.655Z,81.20
2023-01-13T04:52:04.217Z,81.20
2023-01-13T04:54:48.927Z,81.30
2023-01-13T04:57:18.743Z,81.30
2023-01-13T04:59:51.423Z,81.30
2023-01-13T05:02:21.276Z,81.40
2023-01-13T05:04:48.755Z,81.50
2023-01-13T05:07:19.112Z,81.50
2023-01-13T05:09:46.189Z,81.50
2023-01-13T05:12:35.245Z,81.50
2023-01-13T05:15:27.401Z,81.50
2023-01-13T05:17:58.062Z,81.60
2023-01-13T05:20:25.248Z,81.50
2023-01-13T05:23:13.619Z,81.50
2023-01-13T05:25:46.187Z,81.50
2023-01-13T05:28:16.164Z,81.40
2023-01-13T05:33:35.820Z,81.40
2023-01-13T05:36:06.015Z,81.40
2023-01-13T05:38:39.176Z,81.40
2023-01-13T05:41:29.177Z,81.40
2023-01-13T05:43:59.087Z,81.30
2023-01-13T05:46:33.573Z,81.30
2023-01-13T05:49:45.759Z,81.30
2023-01-13T05:52:10.932Z,81.30
2023-01-13T05:54:52.724Z,81.20
2023-01-13T05:57:22.413Z,81.20
2023-01-13T05:59:49.374Z,81.20
2023-01-13T06:02:17.551Z,81.20
2023-01-13T06:04:45.475Z,81.20
2023-01-13T06:07:19.640Z,81.20
2023-01-13T06:09:54.780Z,81.30
2023-01-13T06:12:37.691Z,81.30
2023-01-13T06:15:13.391Z,81.40
2023-01-13T06:17:49.295Z,81.40
2023-01-13T06:20:22.137Z,81.50
2023-01-13T06:22:58.954Z,81.60
2023-01-13T06:25:37.995Z,81.60
2023-01-13T06:28:10.478Z,81.60
2023-01-13T06:30:43.618Z,81.60
2023-01-13T06:33:16.626Z,81.60
2023-01-13T06:35:48.179Z,81.60
2023-01-13T06:38:36.012Z,81.60
2023-01-13T06:41:15.965Z,81.60
2023-01-13T06:43:47.032Z,81.50
2023-01-13T06:46:14.286Z,81.60
2023-01-13T06:48:43.842Z,81.60
2023-01-13T06:51:10.884Z,81.60
2023-01-13T06:53:38.164Z,81.60
2023-01-13T06:56:10.656Z,81.60
2023-01-13T06:58:37.793Z,81.70
2023-01-13T07:01:09.576Z,81.60
2023-01-13T07:04:07.699Z,81.60
2023-01-13T07:06:39.792Z,81.60
2023-01-13T07:09:09.661Z,81.60
2023-01-13T07:11:36.774Z,81.60
2023-01-13T07:14:24.501Z,81.70
2023-01-13T07:17:04.792Z,81.60
2023-01-13T07:19:58.413Z,81.60
2023-01-13T07:22:34.051Z,81.40
2023-01-13T07:25:01.436Z,81.30
2023-01-13T07:27:30.436Z,81.30
2023-01-13T07:29:57.466Z,81.20
2023-01-13T07:33:21.308Z,81.20
2023-01-13T07:36:01.923Z,81.20
2023-01-13T07:39:44.740Z,81.30
2023-01-13T07:42:31.106Z,81.20
2023-01-13T07:45:12.695Z,81.40
2023-01-13T07:47:45.588Z,81.40
2023-01-13T07:50:15.596Z,81.40
2023-01-13T07:52:42.857Z,81.40
2023-01-13T07:55:10.185Z,81.40
2023-01-13T07:57:44.033Z,81.50
2023-01-13T08:00:36.826Z,81.60
2023-01-13T08:03:13.294Z,81.60
2023-01-13T08:05:40.645Z,81.70
2023-01-13T08:08:18.528Z,81.60
2023-01-13T08:11:08.350Z,81.60
2023-01-13T08:13:38.347Z,81.60
2023-01-13T08:16:18.277Z,81.60
2023-01-13T08:19:04.656Z,81.50
2023-01-13T08:21:43.068Z,81.40
2023-01-13T08:24:23.185Z,81.40
2023-01-13T08:26:57.845Z,81.40
2023-01-13T08:29:50.383Z,81.50
2023-01-13T08:33:05.488Z,81.50
2023-01-13T08:38:19.114Z,81.70
2023-01-13T08:41:18.808Z,81.70
2023-01-13T08:43:48.850Z,81.60
2023-01-13T08:54:13.751Z,81.60
2023-01-13T08:56:49.967Z,81.60
2023-01-13T09:00:17.906Z,81.60
2023-01-13T09:17:27.742Z,81.40
2023-01-13T09:20:02.289Z,81.40
2023-01-13T09:26:03.884Z,81.30
2023-01-13T09:28:30.932Z,81.30
2023-01-13T09:31:01.780Z,81.30
2023-01-13T09:33:47.649Z,81.30
2023-01-13T09:36:23.560Z,81.20
2023-01-13T09:43:02.101Z,81.10
2023-01-13T09:45:48.691Z,81.00
2023-01-13T09:48:22.136Z,80.90
2023-01-13T09:51:18.008Z,80.90
2023-01-13T09:54:13.186Z,80.90
2023-01-13T09:56:44.230Z,80.80
2023-01-13T09:59:22.451Z,80.80
2023-01-13T10:02:07.201Z,80.70
2023-01-13T10:05:19.411Z,80.60
2023-01-13T10:08:21.461Z,80.50
2023-01-13T10:11:09.618Z,80.30
2023-01-13T10:13:40.156Z,80.30
2023-01-13T10:16:44.502Z,80.20
2023-01-13T10:19:36.574Z,80.10
2023-01-13T10:22:37.471Z,79.90
2023-01-13T10:25:39.573Z,79.90
2023-01-13T10:28:22.377Z,79.80
2023-01-13T10:31:01.115Z,79.60
2023-01-13T10:33:33.502Z,79.60
2023-01-13T10:36:04.738Z,79.40
2023-01-13T10:38:53.823Z,79.20
2023-01-13T10:41:30.516Z,79.00
2023-01-13T10:44:09.505Z,79.00
2023-01-13T10:46:59.192Z,79.00
2023-01-13T10:49:38.206Z,78.80
2023-01-13T10:52:24.112Z,78.80
2023-01-13T10:54:55.078Z,78.70
2023-01-13T10:57:34.712Z,78.60
2023-01-13T11:00:36.963Z,78.40
2023-01-13T11:06:56.162Z,78.20
2023-01-13T11:09:57.246Z,78.10
2023-01-13T11:17:30.275Z,77.90
2023-01-13T11:20:22.214Z,77.90
2023-01-13T11:22:58.375Z,77.90
2023-01-13T11:25:44.875Z,77.90
2023-01-13T11:28:40.734Z,77.90
2023-01-13T11:35:27.329Z,77.80
2023-01-13T12:14:53.189Z,76.70
2023-01-13T12:17:44.354Z,76.60
2023-01-13T12:20:33.083Z,76.50
2023-01-13T12:23:35.213Z,76.40
2023-01-13T12:29:36.799Z,76.30
2023-01-13T12:32:26.465Z,76.10
2023-01-13T12:35:21.883Z,75.90
2023-01-13T12:38:15.287Z,75.90
2023-01-13T12:40:52.795Z,75.80
2023-01-13T12:43:41.387Z,75.90
2023-01-13T12:46:23.637Z,75.80
2023-01-13T12:49:27.508Z,75.90
2023-01-13T12:52:20.370Z,75.90
2023-01-13T12:54:55.928Z,75.90
2023-01-13T12:57:30.560Z,76.00
2023-01-13T13:00:06.733Z,76.00
2023-01-13T13:02:45.694Z,76.00
2023-01-13T13:05:18.897Z,76.00
2023-01-13T13:08:17.021Z,75.90
2023-01-13T13:11:02.133Z,75.90
2023-01-13T13:13:47.635Z,75.80
2023-01-13T13:16:30.364Z,75.80
2023-01-13T13:19:36.783Z,75.70
2023-01-13T13:22:14.422Z,75.60
2023-01-13T13:25:07.678Z,75.60
2023-01-13T13:27:37.992Z,75.50
2023-01-13T13:30:22.165Z,75.40
2023-01-13T13:33:12.095Z,75.40
2023-01-13T13:35:57.988Z,75.40
2023-01-13T13:39:21.292Z,75.20
2023-01-13T13:42:31.519Z,75.10
2023-01-13T13:45:17.351Z,75.20
2023-01-13T13:47:49.560Z,75.20
2023-01-13T13:50:30.033Z,75.10
2023-01-13T13:53:09.316Z,75.10
2023-01-13T13:55:41.373Z,75.00
2023-01-13T13:58:14.415Z,75.00
2023-01-13T14:00:41.509Z,74.80
2023-01-13T14:03:27.500Z,74.80
2023-01-13T14:06:01.646Z,74.60
2023-01-13T14:08:36.708Z,74.60
2023-01-13T14:11:36.327Z,74.50
2023-01-13T14:14:17.041Z,74.50
2023-01-13T14:16:56.434Z,74.50
2023-01-13T14:19:33.384Z,74.40
2023-01-13T14:22:17.995Z,74.40
2023-01-13T14:24:57.264Z,74.40
2023-01-13T14:27:37.164Z,74.20
2023-01-13T14:30:10.722Z,74.10
2023-01-13T14:32:45.889Z,74.10
2023-01-13T14:35:18.095Z,74.00
2023-01-13T14:37:46.292Z,74.00
2023-01-13T14:40:42.778Z,73.90
2023-01-13T14:43:19.566Z,73.70
2023-01-13T14:46:05.293Z,73.70
2023-01-13T14:48:39.811Z,73.60
2023-01-13T14:51:16.274Z,73.50
2023-01-13T14:53:47.261Z,73.50
2023-01-13T14:56:43.787Z,73.50
2023-01-13T14:59:54.524Z,73.30
2023-01-13T15:02:34.870Z,73.40
2023-01-13T15:05:20.347Z,73.50
2023-01-13T15:08:17.090Z,73.30
2023-01-13T15:10:49.325Z,73.30
2023-01-13T15:13:53.472Z,73.30
2023-01-13T15:16:27.264Z,73.10
2023-01-13T15:18:58.374Z,73.20
2023-01-13T15:21:28.716Z,73.20
2023-01-13T15:24:04.772Z,73.30
2023-01-13T15:26:37.486Z,73.30
2023-01-13T15:29:07.220Z,73.30
2023-01-13T15:31:34.442Z,73.40
2023-01-13T15:34:02.131Z,73.50
2023-01-13T15:36:45.079Z,73.50
2023-01-13T15:39:12.221Z,73.50
2023-01-13T15:42:27.195Z,73.70
2023-01-13T15:45:19.231Z,73.60
2023-01-13T15:47:51.262Z,73.80
2023-01-13T15:50:37.132Z,73.80
2023-01-13T15:53:14.248Z,73.80
2023-01-13T16:03:48.255Z,74.00
2023-01-13T16:07:03.353Z,74.10
2023-01-13T16:13:43.707Z,74.20
2023-01-13T16:20:16.927Z,74.30
2023-01-13T16:23:25.708Z,74.30
2023-01-13T16:26:29.963Z,74.30
2023-01-13T16:29:23.222Z,74.40
2023-01-13T16:49:13.551Z,74.60
2023-01-13T17:02:06.609Z,74.90
2023-01-13T17:04:36.195Z,75.00
2023-01-13T17:07:10.593Z,75.10
2023-01-13T17:09:38.092Z,75.10
2023-01-13T17:12:12.220Z,75.10
2023-01-13T17:14:43.657Z,75.10
2023-01-13T17:17:53.769Z,75.20
2023-01-13T17:20:20.833Z,75.20
2023-01-13T17:22:57.748Z,75.30
2023-01-13T17:25:25.243Z,75.30
2023-01-13T17:27:54.881Z,75.40
2023-01-13T17:30:22.062Z,75.50
2023-01-13T17:33:05.874Z,75.60
2023-01-13T17:35:37.003Z,75.70
2023-01-13T17:38:11.321Z,75.80
2023-01-13T17:40:43.962Z,75.80
2023-01-13T17:43:11.246Z,76.00
2023-01-13T17:45:43.503Z,76.10
2023-01-13T17:48:10.640Z,76.10
2023-01-13T17:50:42.488Z,76.20
2023-01-13T17:53:36.209Z,76.30
2023-01-13T17:56:12.174Z,76.40
2023-01-13T17:58:43.037Z,76.50
2023-01-13T18:01:11.545Z,76.60
2023-01-13T18:03:43.889Z,76.60
2023-01-13T18:06:24.151Z,77.20
2023-01-13T18:08:52.083Z,76.80
2023-01-13T18:11:24.251Z,76.80
2023-01-13T18:13:56.427Z,76.90
2023-01-13T18:16:30.291Z,77.00
2023-01-13T18:19:35.966Z,77.10
2023-01-13T18:22:32.385Z,77.20
2023-01-13T18:25:22.032Z,77.30
2023-01-13T18:28:17.357Z,77.30
2023-01-13T18:30:47.981Z,77.50
2023-01-13T18:33:20.429Z,77.50
2023-01-13T18:35:53.068Z,77.60
2023-01-13T18:41:42.087Z,77.70
2023-01-13T18:44:11.671Z,77.80
2023-01-13T18:46:46.339Z,77.80
2023-01-13T18:49:16.004Z,77.90
2023-01-13T18:51:45.803Z,78.00
2023-01-13T18:54:30.440Z,78.00
2023-01-13T18:57:02.170Z,78.10
2023-01-13T18:59:32.657Z,78.20
2023-01-13T19:02:02.633Z,78.20
2023-01-13T19:04:42.916Z,78.30
2023-01-13T19:07:20.908Z,78.30
2023-01-13T19:09:50.714Z,78.40
2023-01-13T19:12:30.272Z,78.50
2023-01-13T19:14:58.194Z,78.50
2023-01-13T19:17:27.330Z,78.50
2023-01-13T19:19:58.639Z,78.60
2023-01-13T19:22:33.203Z,78.60
2023-01-13T19:25:05.371Z,78.70
2023-01-13T19:31:48.891Z,78.80
2023-01-13T19:45:57.533Z,79.00
2023-01-13T19:51:24.921Z,79.10
2023-01-13T19:53:52.031Z,79.10
2023-01-13T19:56:22.394Z,79.20
2023-01-13T20:05:52.593Z,79.30
2023-01-13T20:08:51.941Z,79.30
2023-01-13T20:31:01.181Z,79.40
2023-01-13T20:52:19.222Z,79.60
2023-01-13T20:54:50.418Z,79.50
2023-01-13T22:39:37.289Z,80.70
2023-01-13T22:57:47.217Z,80.80
2023-01-13T23:41:22.142Z,81.50
2023-01-13T23:44:21.250Z,81.60
2023-01-13T23:46:59.790Z,81.60
